sensor_id;sensor_type;location;lat;lon;timestamp;temperature;humidity
10030;DHT22;5055;52.054;8.524;2023-09-07T00:01:56;16.40;97.00
10030;DHT22;5055;52.054;8.524;2023-09-07T00:04:25;16.40;97.00
10030;DHT22;5055;52.054;8.524;2023-09-07T00:06:54;16.30;97.00
10030;DHT22;5055;52.054;8.524;2023-09-07T00:09:22;16.30;97.00
10030;DHT22;5055;52.054;8.524;2023-09-07T00:11:51;16.20;97.00
10030;DHT22;5055;52.054;8.524;2023-09-07T00:14:19;16.20;97.00
10030;DHT22;5055;52.054;8.524;2023-09-07T00:16:49;16.10;97.00
10030;DHT22;5055;52.054;8.524;2023-09-07T00:19:17;16.10;97.00
10030;DHT22;5055;52.054;8.524;2023-09-07T00:21:45;16.10;97.00
10030;DHT22;5055;52.054;8.524;2023-09-07T00:24:14;16.00;97.00
10030;DHT22;5055;52.054;8.524;2023-09-07T00:26:43;16.00;97.00
10030;DHT22;5055;52.054;8.524;2023-09-07T00:29:11;15.90;97.00
10030;DHT22;5055;52.054;8.524;2023-09-07T00:31:40;15.90;97.00
10030;DHT22;5055;52.054;8.524;2023-09-07T00:34:10;15.90;97.00
10030;DHT22;5055;52.054;8.524;2023-09-07T00:36:38;15.80;97.00
10030;DHT22;5055;52.054;8.524;2023-09-07T00:39:07;15.80;97.00
10030;DHT22;5055;52.054;8.524;2023-09-07T00:41:35;15.80;97.00
10030;DHT22;5055;52.054;8.524;2023-09-07T00:44:04;15.70;97.00
10030;DHT22;5055;52.054;8.524;2023-09-07T00:46:33;15.70;97.00
10030;DHT22;5055;52.054;8.524;2023-09-07T00:49:01;15.70;97.00
10030;DHT22;5055;52.054;8.524;2023-09-07T00:51:33;15.60;97.00
10030;DHT22;5055;52.054;8.524;2023-09-07T00:54:03;15.60;97.00
10030;DHT22;5055;52.054;8.524;2023-09-07T00:56:31;15.60;97.00
10030;DHT22;5055;52.054;8.524;2023-09-07T00:59:00;15.50;97.00
10030;DHT22;5055;52.054;8.524;2023-09-07T01:01:30;15.50;97.00
10030;DHT22;5055;52.054;8.524;2023-09-07T01:04:00;15.50;97.00
10030;DHT22;5055;52.054;8.524;2023-09-07T01:06:35;15.40;97.00
10030;DHT22;5055;52.054;8.524;2023-09-07T01:09:10;15.40;97.00
10030;DHT22;5055;52.054;8.524;2023-09-07T01:11:40;15.40;97.00
10030;DHT22;5055;52.054;8.524;2023-09-07T01:14:09;15.30;97.00
10030;DHT22;5055;52.054;8.524;2023-09-07T01:16:38;15.30;97.00
10030;DHT22;5055;52.054;8.524;2023-09-07T01:19:07;15.30;97.00
10030;DHT22;5055;52.054;8.524;2023-09-07T01:21:39;15.20;97.00
10030;DHT22;5055;52.054;8.524;2023-09-07T01:24:09;15.20;97.00
10030;DHT22;5055;52.054;8.524;2023-09-07T01:26:38;15.10;97.00
10030;DHT22;5055;52.054;8.524;2023-09-07T01:29:07;15.10;97.00
10030;DHT22;5055;52.054;8.524;2023-09-07T01:31:35;15.10;97.00
10030;DHT22;5055;52.054;8.524;2023-09-07T01:34:06;15.00;97.00
10030;DHT22;5055;52.054;8.524;2023-09-07T01:36:35;15.00;97.00
10030;DHT22;5055;52.054;8.524;2023-09-07T01:39:05;14.90;97.00
10030;DHT22;5055;52.054;8.524;2023-09-07T01:41:34;14.90;97.00
10030;DHT22;5055;52.054;8.524;2023-09-07T01:44:03;14.90;97.00
10030;DHT22;5055;52.054;8.524;2023-09-07T01:46:32;14.90;97.00
10030;DHT22;5055;52.054;8.524;2023-09-07T01:49:02;14.80;97.00
10030;DHT22;5055;52.054;8.524;2023-09-07T01:51:31;14.80;97.00
10030;DHT22;5055;52.054;8.524;2023-09-07T01:53:59;14.70;97.00
10030;DHT22;5055;52.054;8.524;2023-09-07T01:56:29;14.70;97.00
10030;DHT22;5055;52.054;8.524;2023-09-07T01:58:57;14.70;97.00
10030;DHT22;5055;52.054;8.524;2023-09-07T02:01:27;14.70;97.00
10030;DHT22;5055;52.054;8.524;2023-09-07T02:03:57;14.60;97.00
10030;DHT22;5055;52.054;8.524;2023-09-07T02:06:26;14.60;97.00
10030;DHT22;5055;52.054;8.524;2023-09-07T02:08:54;14.60;97.00
10030;DHT22;5055;52.054;8.524;2023-09-07T02:11:22;14.50;97.00
10030;DHT22;5055;52.054;8.524;2023-09-07T02:13:52;14.50;97.00
10030;DHT22;5055;52.054;8.524;2023-09-07T02:16:20;14.50;97.00
10030;DHT22;5055;52.054;8.524;2023-09-07T02:18:50;14.50;97.00
10030;DHT22;5055;52.054;8.524;2023-09-07T02:21:18;14.40;97.00
10030;DHT22;5055;52.054;8.524;2023-09-07T02:23:48;14.40;97.00
10030;DHT22;5055;52.054;8.524;2023-09-07T02:26:16;14.40;97.00
10030;DHT22;5055;52.054;8.524;2023-09-07T02:28:44;14.30;97.00
10030;DHT22;5055;52.054;8.524;2023-09-07T02:31:14;14.30;97.00
10030;DHT22;5055;52.054;8.524;2023-09-07T02:33:42;14.20;97.00
10030;DHT22;5055;52.054;8.524;2023-09-07T02:36:11;14.20;97.00
10030;DHT22;5055;52.054;8.524;2023-09-07T02:38:39;14.10;97.00
10030;DHT22;5055;52.054;8.524;2023-09-07T02:41:08;14.10;97.00
10030;DHT22;5055;52.054;8.524;2023-09-07T02:43:37;14.10;97.00
10030;DHT22;5055;52.054;8.524;2023-09-07T02:46:05;14.00;97.00
10030;DHT22;5055;52.054;8.524;2023-09-07T02:48:35;14.00;97.00
10030;DHT22;5055;52.054;8.524;2023-09-07T02:51:04;14.00;97.00
10030;DHT22;5055;52.054;8.524;2023-09-07T02:53:32;14.00;97.00
10030;DHT22;5055;52.054;8.524;2023-09-07T02:56:01;14.00;97.00
10030;DHT22;5055;52.054;8.524;2023-09-07T02:58:31;14.00;97.00
10030;DHT22;5055;52.054;8.524;2023-09-07T03:01:05;13.90;97.00
10030;DHT22;5055;52.054;8.524;2023-09-07T03:03:37;13.90;97.00
10030;DHT22;5055;52.054;8.524;2023-09-07T03:06:08;13.80;97.00
10030;DHT22;5055;52.054;8.524;2023-09-07T03:08:37;13.80;97.00
10030;DHT22;5055;52.054;8.524;2023-09-07T03:11:11;13.80;97.00
10030;DHT22;5055;52.054;8.524;2023-09-07T03:13:40;13.80;97.00
10030;DHT22;5055;52.054;8.524;2023-09-07T03:16:10;13.70;97.00
10030;DHT22;5055;52.054;8.524;2023-09-07T03:18:40;13.70;97.00
10030;DHT22;5055;52.054;8.524;2023-09-07T03:21:08;13.70;97.00
10030;DHT22;5055;52.054;8.524;2023-09-07T03:23:37;13.60;97.00
10030;DHT22;5055;52.054;8.524;2023-09-07T03:26:11;13.60;97.00
10030;DHT22;5055;52.054;8.524;2023-09-07T03:28:39;13.60;97.00
10030;DHT22;5055;52.054;8.524;2023-09-07T03:31:11;13.60;97.00
10030;DHT22;5055;52.054;8.524;2023-09-07T03:33:42;13.50;97.00
10030;DHT22;5055;52.054;8.524;2023-09-07T03:36:10;13.50;97.00
10030;DHT22;5055;52.054;8.524;2023-09-07T03:38:40;13.50;97.00
10030;DHT22;5055;52.054;8.524;2023-09-07T03:41:09;13.50;97.00
10030;DHT22;5055;52.054;8.524;2023-09-07T03:43:37;13.50;97.00
10030;DHT22;5055;52.054;8.524;2023-09-07T03:46:06;13.40;97.00
10030;DHT22;5055;52.054;8.524;2023-09-07T03:48:35;13.40;97.00
10030;DHT22;5055;52.054;8.524;2023-09-07T03:51:08;13.40;97.00
10030;DHT22;5055;52.054;8.524;2023-09-07T03:53:36;13.30;97.00
10030;DHT22;5055;52.054;8.524;2023-09-07T03:56:05;13.30;97.00
10030;DHT22;5055;52.054;8.524;2023-09-07T03:58:33;13.30;97.00
10030;DHT22;5055;52.054;8.524;2023-09-07T04:01:01;13.30;97.00
10030;DHT22;5055;52.054;8.524;2023-09-07T04:03:30;13.20;97.00
10030;DHT22;5055;52.054;8.524;2023-09-07T04:05:59;13.20;97.00
10030;DHT22;5055;52.054;8.524;2023-09-07T04:08:29;13.20;97.00
10030;DHT22;5055;52.054;8.524;2023-09-07T04:10:57;13.20;97.00
10030;DHT22;5055;52.054;8.524;2023-09-07T04:13:26;13.10;97.00
10030;DHT22;5055;52.054;8.524;2023-09-07T04:15:54;13.10;97.00
10030;DHT22;5055;52.054;8.524;2023-09-07T04:18:22;13.10;97.00
10030;DHT22;5055;52.054;8.524;2023-09-07T04:20:50;13.10;97.00
10030;DHT22;5055;52.054;8.524;2023-09-07T04:23:18;13.10;97.00
10030;DHT22;5055;52.054;8.524;2023-09-07T04:25:48;13.00;97.00
10030;DHT22;5055;52.054;8.524;2023-09-07T04:28:17;13.00;97.00
10030;DHT22;5055;52.054;8.524;2023-09-07T04:30:45;13.00;97.00
10030;DHT22;5055;52.054;8.524;2023-09-07T04:33:13;12.90;97.00
10030;DHT22;5055;52.054;8.524;2023-09-07T04:35:41;12.90;97.00
10030;DHT22;5055;52.054;8.524;2023-09-07T04:38:10;12.90;97.00
10030;DHT22;5055;52.054;8.524;2023-09-07T04:40:44;12.80;97.00
10030;DHT22;5055;52.054;8.524;2023-09-07T04:43:14;12.80;97.00
10030;DHT22;5055;52.054;8.524;2023-09-07T04:45:46;12.80;97.00
10030;DHT22;5055;52.054;8.524;2023-09-07T04:48:14;12.80;97.00
10030;DHT22;5055;52.054;8.524;2023-09-07T04:50:43;12.80;97.00
10030;DHT22;5055;52.054;8.524;2023-09-07T04:53:11;12.70;97.00
10030;DHT22;5055;52.054;8.524;2023-09-07T04:55:39;12.80;97.00
10030;DHT22;5055;52.054;8.524;2023-09-07T04:58:08;12.80;97.00
10030;DHT22;5055;52.054;8.524;2023-09-07T05:00:37;12.80;97.00
10030;DHT22;5055;52.054;8.524;2023-09-07T05:03:06;12.80;97.00
10030;DHT22;5055;52.054;8.524;2023-09-07T05:05:34;12.80;97.00
10030;DHT22;5055;52.054;8.524;2023-09-07T05:08:04;12.80;97.00
10030;DHT22;5055;52.054;8.524;2023-09-07T05:10:33;12.80;97.00
10030;DHT22;5055;52.054;8.524;2023-09-07T05:13:01;12.80;97.00
10030;DHT22;5055;52.054;8.524;2023-09-07T05:15:30;12.90;97.00
10030;DHT22;5055;52.054;8.524;2023-09-07T05:17:59;12.90;97.00
10030;DHT22;5055;52.054;8.524;2023-09-07T05:20:30;13.00;97.00
10030;DHT22;5055;52.054;8.524;2023-09-07T05:22:58;13.20;97.00
10030;DHT22;5055;52.054;8.524;2023-09-07T05:25:28;13.30;97.00
10030;DHT22;5055;52.054;8.524;2023-09-07T05:27:59;13.50;97.00
10030;DHT22;5055;52.054;8.524;2023-09-07T05:30:28;13.80;97.00
10030;DHT22;5055;52.054;8.524;2023-09-07T05:32:58;13.90;97.00
10030;DHT22;5055;52.054;8.524;2023-09-07T05:35:26;14.00;97.00
10030;DHT22;5055;52.054;8.524;2023-09-07T05:37:59;14.00;97.00
10030;DHT22;5055;52.054;8.524;2023-09-07T05:40:27;14.00;97.00
10030;DHT22;5055;52.054;8.524;2023-09-07T05:42:55;14.20;97.00
10030;DHT22;5055;52.054;8.524;2023-09-07T05:45:24;14.40;97.00
10030;DHT22;5055;52.054;8.524;2023-09-07T05:47:52;14.70;97.00
10030;DHT22;5055;52.054;8.524;2023-09-07T05:50:22;15.10;97.00
10030;DHT22;5055;52.054;8.524;2023-09-07T05:52:50;15.50;97.00
10030;DHT22;5055;52.054;8.524;2023-09-07T05:55:18;15.90;97.00
10030;DHT22;5055;52.054;8.524;2023-09-07T05:57:49;16.20;97.00
10030;DHT22;5055;52.054;8.524;2023-09-07T06:00:17;16.60;97.00
10030;DHT22;5055;52.054;8.524;2023-09-07T06:02:46;17.00;97.00
10030;DHT22;5055;52.054;8.524;2023-09-07T06:05:15;17.40;97.00
10030;DHT22;5055;52.054;8.524;2023-09-07T06:07:45;17.60;97.00
10030;DHT22;5055;52.054;8.524;2023-09-07T06:10:13;17.90;97.00
10030;DHT22;5055;52.054;8.524;2023-09-07T06:12:41;18.00;97.00
10030;DHT22;5055;52.054;8.524;2023-09-07T06:15:10;18.20;97.00
10030;DHT22;5055;52.054;8.524;2023-09-07T06:17:38;18.40;97.00
10030;DHT22;5055;52.054;8.524;2023-09-07T06:20:08;18.70;97.00
10030;DHT22;5055;52.054;8.524;2023-09-07T06:22:37;19.10;97.00
10030;DHT22;5055;52.054;8.524;2023-09-07T06:25:07;19.50;97.00
10030;DHT22;5055;52.054;8.524;2023-09-07T06:27:35;20.00;97.00
10030;DHT22;5055;52.054;8.524;2023-09-07T06:30:05;20.50;97.00
10030;DHT22;5055;52.054;8.524;2023-09-07T06:32:34;20.80;97.00
10030;DHT22;5055;52.054;8.524;2023-09-07T06:35:03;21.10;97.00
10030;DHT22;5055;52.054;8.524;2023-09-07T06:37:31;21.40;97.00
10030;DHT22;5055;52.054;8.524;2023-09-07T06:39:59;21.80;97.00
10030;DHT22;5055;52.054;8.524;2023-09-07T06:42:29;22.00;97.00
10030;DHT22;5055;52.054;8.524;2023-09-07T06:44:58;22.20;97.00
10030;DHT22;5055;52.054;8.524;2023-09-07T06:47:26;22.60;97.00
10030;DHT22;5055;52.054;8.524;2023-09-07T06:49:57;22.80;97.00
10030;DHT22;5055;52.054;8.524;2023-09-07T06:52:25;23.10;97.00
10030;DHT22;5055;52.054;8.524;2023-09-07T06:54:54;23.50;97.00
10030;DHT22;5055;52.054;8.524;2023-09-07T06:57:22;23.70;97.00
10030;DHT22;5055;52.054;8.524;2023-09-07T06:59:52;23.90;97.00
10030;DHT22;5055;52.054;8.524;2023-09-07T07:02:21;24.40;97.00
10030;DHT22;5055;52.054;8.524;2023-09-07T07:04:49;24.70;97.00
10030;DHT22;5055;52.054;8.524;2023-09-07T07:07:17;25.00;97.00
10030;DHT22;5055;52.054;8.524;2023-09-07T07:09:46;25.40;97.00
10030;DHT22;5055;52.054;8.524;2023-09-07T07:12:14;25.60;97.00
10030;DHT22;5055;52.054;8.524;2023-09-07T07:14:43;25.60;97.00
10030;DHT22;5055;52.054;8.524;2023-09-07T07:17:12;25.40;97.00
10030;DHT22;5055;52.054;8.524;2023-09-07T07:19:41;25.40;97.00
10030;DHT22;5055;52.054;8.524;2023-09-07T07:22:10;25.30;97.00
10030;DHT22;5055;52.054;8.524;2023-09-07T07:24:38;25.50;97.00
10030;DHT22;5055;52.054;8.524;2023-09-07T07:27:07;25.40;97.00
10030;DHT22;5055;52.054;8.524;2023-09-07T07:29:35;25.30;97.00
10030;DHT22;5055;52.054;8.524;2023-09-07T07:32:04;25.30;97.00
10030;DHT22;5055;52.054;8.524;2023-09-07T07:34:34;25.50;97.00
10030;DHT22;5055;52.054;8.524;2023-09-07T07:37:02;25.60;97.00
10030;DHT22;5055;52.054;8.524;2023-09-07T07:39:31;25.70;97.00
10030;DHT22;5055;52.054;8.524;2023-09-07T07:41:59;25.90;97.00
10030;DHT22;5055;52.054;8.524;2023-09-07T07:44:31;25.90;97.00
10030;DHT22;5055;52.054;8.524;2023-09-07T07:47:00;25.80;97.00
10030;DHT22;5055;52.054;8.524;2023-09-07T07:49:29;25.40;97.00
10030;DHT22;5055;52.054;8.524;2023-09-07T07:52:00;25.20;97.00
10030;DHT22;5055;52.054;8.524;2023-09-07T07:54:28;25.20;97.00
10030;DHT22;5055;52.054;8.524;2023-09-07T07:56:56;25.30;97.00
10030;DHT22;5055;52.054;8.524;2023-09-07T07:59:24;25.40;97.00
10030;DHT22;5055;52.054;8.524;2023-09-07T08:01:53;25.80;97.00
10030;DHT22;5055;52.054;8.524;2023-09-07T08:04:22;25.60;97.00
10030;DHT22;5055;52.054;8.524;2023-09-07T08:06:50;25.90;97.00
10030;DHT22;5055;52.054;8.524;2023-09-07T08:09:22;26.10;97.00
10030;DHT22;5055;52.054;8.524;2023-09-07T08:11:51;26.30;97.00
10030;DHT22;5055;52.054;8.524;2023-09-07T08:14:19;26.40;97.00
10030;DHT22;5055;52.054;8.524;2023-09-07T08:16:49;26.00;97.00
10030;DHT22;5055;52.054;8.524;2023-09-07T08:19:17;26.50;97.00
10030;DHT22;5055;52.054;8.524;2023-09-07T08:21:46;26.40;97.00
10030;DHT22;5055;52.054;8.524;2023-09-07T08:24:14;26.50;97.00
10030;DHT22;5055;52.054;8.524;2023-09-07T08:26:44;26.60;97.00
10030;DHT22;5055;52.054;8.524;2023-09-07T08:29:12;26.80;97.00
10030;DHT22;5055;52.054;8.524;2023-09-07T08:31:40;27.00;97.00
10030;DHT22;5055;52.054;8.524;2023-09-07T08:34:11;26.90;97.00
10030;DHT22;5055;52.054;8.524;2023-09-07T08:36:40;26.90;97.00
10030;DHT22;5055;52.054;8.524;2023-09-07T08:39:09;27.00;97.00
10030;DHT22;5055;52.054;8.524;2023-09-07T08:41:40;26.90;97.00
10030;DHT22;5055;52.054;8.524;2023-09-07T08:44:28;27.00;97.00
10030;DHT22;5055;52.054;8.524;2023-09-07T08:46:57;27.30;97.00
10030;DHT22;5055;52.054;8.524;2023-09-07T08:49:27;27.80;97.00
10030;DHT22;5055;52.054;8.524;2023-09-07T08:51:58;28.00;97.00
10030;DHT22;5055;52.054;8.524;2023-09-07T08:54:28;28.30;97.00
10030;DHT22;5055;52.054;8.524;2023-09-07T08:56:57;28.20;97.00
10030;DHT22;5055;52.054;8.524;2023-09-07T08:59:27;28.60;97.00
10030;DHT22;5055;52.054;8.524;2023-09-07T09:01:58;28.40;97.00
10030;DHT22;5055;52.054;8.524;2023-09-07T09:04:27;28.60;97.00
10030;DHT22;5055;52.054;8.524;2023-09-07T09:06:57;28.70;97.00
10030;DHT22;5055;52.054;8.524;2023-09-07T09:09:25;28.80;97.00
10030;DHT22;5055;52.054;8.524;2023-09-07T09:11:54;28.60;97.00
10030;DHT22;5055;52.054;8.524;2023-09-07T09:14:22;28.30;97.00
10030;DHT22;5055;52.054;8.524;2023-09-07T09:16:53;28.20;97.00
10030;DHT22;5055;52.054;8.524;2023-09-07T09:19:30;28.40;97.00
10030;DHT22;5055;52.054;8.524;2023-09-07T09:22:01;28.20;97.00
10030;DHT22;5055;52.054;8.524;2023-09-07T09:24:34;28.40;97.00
10030;DHT22;5055;52.054;8.524;2023-09-07T09:27:03;28.30;97.00
10030;DHT22;5055;52.054;8.524;2023-09-07T09:29:32;28.60;97.00
10030;DHT22;5055;52.054;8.524;2023-09-07T09:32:03;28.50;97.00
10030;DHT22;5055;52.054;8.524;2023-09-07T09:34:33;28.70;97.00
10030;DHT22;5055;52.054;8.524;2023-09-07T09:37:03;28.50;97.00
10030;DHT22;5055;52.054;8.524;2023-09-07T09:39:31;28.70;97.00
10030;DHT22;5055;52.054;8.524;2023-09-07T09:42:01;28.50;97.00
10030;DHT22;5055;52.054;8.524;2023-09-07T09:44:30;28.50;97.00
10030;DHT22;5055;52.054;8.524;2023-09-07T09:47:01;28.90;97.00
10030;DHT22;5055;52.054;8.524;2023-09-07T09:49:31;29.10;97.00
10030;DHT22;5055;52.054;8.524;2023-09-07T09:52:00;29.10;97.00
10030;DHT22;5055;52.054;8.524;2023-09-07T09:54:29;29.00;97.00
10030;DHT22;5055;52.054;8.524;2023-09-07T09:56:58;28.70;97.00
10030;DHT22;5055;52.054;8.524;2023-09-07T09:59:27;29.00;97.00
10030;DHT22;5055;52.054;8.524;2023-09-07T10:01:55;29.40;97.00
10030;DHT22;5055;52.054;8.524;2023-09-07T10:04:26;29.60;97.00
10030;DHT22;5055;52.054;8.524;2023-09-07T10:06:58;29.60;97.00
10030;DHT22;5055;52.054;8.524;2023-09-07T10:09:29;29.70;97.00
10030;DHT22;5055;52.054;8.524;2023-09-07T10:12:01;29.80;97.00
10030;DHT22;5055;52.054;8.524;2023-09-07T10:14:38;29.90;97.00
10030;DHT22;5055;52.054;8.524;2023-09-07T10:17:07;29.90;97.00
10030;DHT22;5055;52.054;8.524;2023-09-07T10:19:38;30.40;97.00
10030;DHT22;5055;52.054;8.524;2023-09-07T10:22:21;30.20;97.00
10030;DHT22;5055;52.054;8.524;2023-09-07T10:24:57;29.80;97.00
10030;DHT22;5055;52.054;8.524;2023-09-07T10:27:36;30.10;97.00
10030;DHT22;5055;52.054;8.524;2023-09-07T10:30:10;30.00;97.00
10030;DHT22;5055;52.054;8.524;2023-09-07T10:32:39;29.80;97.00
10030;DHT22;5055;52.054;8.524;2023-09-07T10:35:20;29.60;97.00
10030;DHT22;5055;52.054;8.524;2023-09-07T10:37:51;29.70;97.00
10030;DHT22;5055;52.054;8.524;2023-09-07T10:40:20;29.80;97.00
10030;DHT22;5055;52.054;8.524;2023-09-07T10:42:49;29.70;97.00
10030;DHT22;5055;52.054;8.524;2023-09-07T10:45:17;30.00;97.00
10030;DHT22;5055;52.054;8.524;2023-09-07T10:47:46;30.50;97.00
10030;DHT22;5055;52.054;8.524;2023-09-07T10:50:14;30.70;97.00
10030;DHT22;5055;52.054;8.524;2023-09-07T10:52:44;31.10;97.00
10030;DHT22;5055;52.054;8.524;2023-09-07T10:55:12;31.20;97.00
10030;DHT22;5055;52.054;8.524;2023-09-07T10:57:41;31.10;97.00
10030;DHT22;5055;52.054;8.524;2023-09-07T11:00:12;31.40;97.00
10030;DHT22;5055;52.054;8.524;2023-09-07T11:02:42;31.50;97.00
10030;DHT22;5055;52.054;8.524;2023-09-07T11:05:10;31.30;97.00
10030;DHT22;5055;52.054;8.524;2023-09-07T11:07:39;31.00;97.00
10030;DHT22;5055;52.054;8.524;2023-09-07T11:10:12;31.10;97.00
10030;DHT22;5055;52.054;8.524;2023-09-07T11:12:40;31.40;97.00
10030;DHT22;5055;52.054;8.524;2023-09-07T11:15:09;31.60;97.00
10030;DHT22;5055;52.054;8.524;2023-09-07T11:17:38;31.90;97.00
10030;DHT22;5055;52.054;8.524;2023-09-07T11:20:07;32.00;97.00
10030;DHT22;5055;52.054;8.524;2023-09-07T11:22:37;31.80;97.00
10030;DHT22;5055;52.054;8.524;2023-09-07T11:25:26;31.50;97.00
10030;DHT22;5055;52.054;8.524;2023-09-07T11:27:57;31.40;97.00
10030;DHT22;5055;52.054;8.524;2023-09-07T11:30:26;31.60;97.00
10030;DHT22;5055;52.054;8.524;2023-09-07T11:33:01;31.90;97.00
10030;DHT22;5055;52.054;8.524;2023-09-07T11:35:29;32.00;97.00
10030;DHT22;5055;52.054;8.524;2023-09-07T11:37:59;32.00;97.00
10030;DHT22;5055;52.054;8.524;2023-09-07T11:40:29;32.10;97.00
10030;DHT22;5055;52.054;8.524;2023-09-07T11:42:57;32.20;97.00
10030;DHT22;5055;52.054;8.524;2023-09-07T11:45:25;32.10;97.00
10030;DHT22;5055;52.054;8.524;2023-09-07T11:47:54;31.90;97.00
10030;DHT22;5055;52.054;8.524;2023-09-07T11:50:23;32.00;97.00
10030;DHT22;5055;52.054;8.524;2023-09-07T11:52:52;31.80;97.00
10030;DHT22;5055;52.054;8.524;2023-09-07T11:55:20;31.90;97.00
10030;DHT22;5055;52.054;8.524;2023-09-07T11:57:50;32.00;97.00
10030;DHT22;5055;52.054;8.524;2023-09-07T12:00:19;32.20;97.00
10030;DHT22;5055;52.054;8.524;2023-09-07T12:02:49;31.30;97.00
10030;DHT22;5055;52.054;8.524;2023-09-07T12:05:18;31.20;97.00
10030;DHT22;5055;52.054;8.524;2023-09-07T12:07:46;31.20;97.00
10030;DHT22;5055;52.054;8.524;2023-09-07T12:10:15;31.80;97.00
10030;DHT22;5055;52.054;8.524;2023-09-07T12:12:43;32.50;97.00
10030;DHT22;5055;52.054;8.524;2023-09-07T12:15:13;32.90;97.00
10030;DHT22;5055;52.054;8.524;2023-09-07T12:17:42;33.30;97.00
10030;DHT22;5055;52.054;8.524;2023-09-07T12:20:11;33.20;97.00
10030;DHT22;5055;52.054;8.524;2023-09-07T12:22:41;33.40;97.00
10030;DHT22;5055;52.054;8.524;2023-09-07T12:25:10;32.90;97.00
10030;DHT22;5055;52.054;8.524;2023-09-07T12:27:47;32.90;97.00
10030;DHT22;5055;52.054;8.524;2023-09-07T12:30:22;32.20;97.00
10030;DHT22;5055;52.054;8.524;2023-09-07T12:32:51;32.10;97.00
10030;DHT22;5055;52.054;8.524;2023-09-07T12:35:20;32.50;97.00
10030;DHT22;5055;52.054;8.524;2023-09-07T12:37:49;32.80;97.00
10030;DHT22;5055;52.054;8.524;2023-09-07T12:40:17;33.00;97.00
10030;DHT22;5055;52.054;8.524;2023-09-07T12:42:46;33.20;97.00
10030;DHT22;5055;52.054;8.524;2023-09-07T12:45:14;33.20;97.00
10030;DHT22;5055;52.054;8.524;2023-09-07T12:47:44;32.90;97.00
10030;DHT22;5055;52.054;8.524;2023-09-07T12:50:13;33.20;97.00
10030;DHT22;5055;52.054;8.524;2023-09-07T12:52:44;33.30;97.00
10030;DHT22;5055;52.054;8.524;2023-09-07T12:55:12;33.40;97.00
10030;DHT22;5055;52.054;8.524;2023-09-07T12:57:41;33.40;97.00
10030;DHT22;5055;52.054;8.524;2023-09-07T13:00:11;33.20;97.00
10030;DHT22;5055;52.054;8.524;2023-09-07T13:02:40;33.30;97.00
10030;DHT22;5055;52.054;8.524;2023-09-07T13:05:10;33.20;97.00
10030;DHT22;5055;52.054;8.524;2023-09-07T13:07:38;33.50;97.00
10030;DHT22;5055;52.054;8.524;2023-09-07T13:10:08;33.80;97.00
10030;DHT22;5055;52.054;8.524;2023-09-07T13:12:37;33.60;97.00
10030;DHT22;5055;52.054;8.524;2023-09-07T13:15:06;33.60;97.00
10030;DHT22;5055;52.054;8.524;2023-09-07T13:17:35;33.70;97.00
10030;DHT22;5055;52.054;8.524;2023-09-07T13:20:05;33.10;97.00
10030;DHT22;5055;52.054;8.524;2023-09-07T13:22:34;33.20;97.00
10030;DHT22;5055;52.054;8.524;2023-09-07T13:25:03;33.40;97.00
10030;DHT22;5055;52.054;8.524;2023-09-07T13:27:32;33.50;97.00
10030;DHT22;5055;52.054;8.524;2023-09-07T13:30:01;33.20;97.00
10030;DHT22;5055;52.054;8.524;2023-09-07T13:32:30;33.40;97.00
10030;DHT22;5055;52.054;8.524;2023-09-07T13:34:59;33.20;97.00
10030;DHT22;5055;52.054;8.524;2023-09-07T13:37:27;33.40;97.00
10030;DHT22;5055;52.054;8.524;2023-09-07T13:39:57;34.00;97.00
10030;DHT22;5055;52.054;8.524;2023-09-07T13:42:26;34.00;97.00
10030;DHT22;5055;52.054;8.524;2023-09-07T13:44:55;34.20;97.00
10030;DHT22;5055;52.054;8.524;2023-09-07T13:47:23;34.30;97.00
10030;DHT22;5055;52.054;8.524;2023-09-07T13:49:51;34.50;97.00
10030;DHT22;5055;52.054;8.524;2023-09-07T13:52:20;34.70;97.00
10030;DHT22;5055;52.054;8.524;2023-09-07T13:54:48;34.80;97.00
10030;DHT22;5055;52.054;8.524;2023-09-07T13:57:18;34.40;97.00
10030;DHT22;5055;52.054;8.524;2023-09-07T13:59:48;34.90;97.00
10030;DHT22;5055;52.054;8.524;2023-09-07T14:02:17;35.10;97.00
10030;DHT22;5055;52.054;8.524;2023-09-07T14:04:45;34.80;97.00
10030;DHT22;5055;52.054;8.524;2023-09-07T14:07:13;34.90;97.00
10030;DHT22;5055;52.054;8.524;2023-09-07T14:09:42;35.00;97.00
10030;DHT22;5055;52.054;8.524;2023-09-07T14:12:11;35.30;97.00
10030;DHT22;5055;52.054;8.524;2023-09-07T14:14:41;35.40;97.00
10030;DHT22;5055;52.054;8.524;2023-09-07T14:17:09;35.90;97.00
10030;DHT22;5055;52.054;8.524;2023-09-07T14:19:37;36.30;97.00
10030;DHT22;5055;52.054;8.524;2023-09-07T14:22:06;35.90;97.00
10030;DHT22;5055;52.054;8.524;2023-09-07T14:24:34;35.50;97.00
10030;DHT22;5055;52.054;8.524;2023-09-07T14:27:03;35.70;97.00
10030;DHT22;5055;52.054;8.524;2023-09-07T14:29:32;35.40;97.00
10030;DHT22;5055;52.054;8.524;2023-09-07T14:32:03;35.50;97.00
10030;DHT22;5055;52.054;8.524;2023-09-07T14:34:31;35.60;97.00
10030;DHT22;5055;52.054;8.524;2023-09-07T14:37:00;35.20;97.00
10030;DHT22;5055;52.054;8.524;2023-09-07T14:39:29;34.80;97.00
10030;DHT22;5055;52.054;8.524;2023-09-07T14:41:57;35.10;97.00
10030;DHT22;5055;52.054;8.524;2023-09-07T14:44:28;35.20;97.00
10030;DHT22;5055;52.054;8.524;2023-09-07T14:46:56;34.90;97.00
10030;DHT22;5055;52.054;8.524;2023-09-07T14:49:26;35.20;97.00
10030;DHT22;5055;52.054;8.524;2023-09-07T14:51:55;35.10;97.00
10030;DHT22;5055;52.054;8.524;2023-09-07T14:54:24;34.90;97.00
10030;DHT22;5055;52.054;8.524;2023-09-07T14:56:52;34.70;97.00
10030;DHT22;5055;52.054;8.524;2023-09-07T14:59:21;34.60;97.00
10030;DHT22;5055;52.054;8.524;2023-09-07T15:01:49;34.50;97.00
10030;DHT22;5055;52.054;8.524;2023-09-07T15:04:29;34.80;97.00
10030;DHT22;5055;52.054;8.524;2023-09-07T15:06:58;34.60;97.00
10030;DHT22;5055;52.054;8.524;2023-09-07T15:09:26;34.60;97.00
10030;DHT22;5055;52.054;8.524;2023-09-07T15:11:55;34.60;97.00
10030;DHT22;5055;52.054;8.524;2023-09-07T15:14:23;34.20;97.00
10030;DHT22;5055;52.054;8.524;2023-09-07T15:16:52;34.20;97.00
10030;DHT22;5055;52.054;8.524;2023-09-07T15:19:21;34.60;97.00
10030;DHT22;5055;52.054;8.524;2023-09-07T15:21:51;34.30;97.00
10030;DHT22;5055;52.054;8.524;2023-09-07T15:24:19;34.30;97.00
10030;DHT22;5055;52.054;8.524;2023-09-07T15:26:48;34.30;97.00
10030;DHT22;5055;52.054;8.524;2023-09-07T15:29:16;34.50;97.00
10030;DHT22;5055;52.054;8.524;2023-09-07T15:31:45;34.60;97.00
10030;DHT22;5055;52.054;8.524;2023-09-07T15:34:13;34.40;97.00
10030;DHT22;5055;52.054;8.524;2023-09-07T15:36:41;34.60;97.00
10030;DHT22;5055;52.054;8.524;2023-09-07T15:39:15;34.40;97.00
10030;DHT22;5055;52.054;8.524;2023-09-07T15:41:43;34.50;97.00
10030;DHT22;5055;52.054;8.524;2023-09-07T15:44:11;34.50;97.00
10030;DHT22;5055;52.054;8.524;2023-09-07T15:46:40;34.30;97.00
10030;DHT22;5055;52.054;8.524;2023-09-07T15:49:09;34.20;97.00
10030;DHT22;5055;52.054;8.524;2023-09-07T15:51:37;34.00;97.00
10030;DHT22;5055;52.054;8.524;2023-09-07T15:54:05;33.90;97.00
10030;DHT22;5055;52.054;8.524;2023-09-07T15:56:36;33.60;97.00
10030;DHT22;5055;52.054;8.524;2023-09-07T15:59:04;33.30;97.00